createdAt,value
2023-01-13T00:04:23.164Z,99355.49
2023-01-13T00:09:26.245Z,99348.70
2023-01-13T00:14:30.485Z,99336.56
2023-01-13T00:19:33.594Z,99329.96
2023-01-13T00:24:36.701Z,99327.34
2023-01-13T00:29:39.807Z,99329.06
2023-01-13T00:34:43.229Z,99326.64
2023-01-13T00:39:46.747Z,99336.27
2023-01-13T00:44:49.854Z,99327.48
2023-01-13T00:49:52.963Z,99326.89
2023-01-13T00:54:56.183Z,99324.17
2023-01-13T00:59:59.491Z,99321.25
2023-01-13T01:05:02.529Z,99324.91
2023-01-13T01:10:06.219Z,99312.90
2023-01-13T01:15:10.563Z,99306.11
2023-01-13T01:20:13.659Z,99301.59
2023-01-13T01:25:16.980Z,99291.13
2023-01-13T01:30:20.478Z,99293.01
2023-01-13T01:35:24.983Z,99287.92
2023-01-13T01:40:28.148Z,99280.45
2023-01-13T01:45:31.551Z,99271.94
2023-01-13T01:50:35.243Z,99264.46
2023-01-13T01:55:38.703Z,99262.19
2023-01-13T02:00:41.939Z,99257.67
2023-01-13T02:05:45.125Z,99249.05
2023-01-13T02:10:53.893Z,99241.52
2023-01-13T02:16:15.654Z,99238.17
2023-01-13T02:21:35.820Z,99230.33
2023-01-13T02:26:41.699Z,99224.70
2023-01-13T02:31:48.851Z,99222.81
2023-01-13T02:37:00.297Z,99216.42
2023-01-13T02:42:37.106Z,99215.02
2023-01-13T02:47:43.285Z,99212.25
2023-01-13T02:52:55.100Z,99210.38
2023-01-13T02:58:01.090Z,99200.86
2023-01-13T03:03:04.281Z,99199.34
2023-01-13T03:08:19.582Z,99187.91
2023-01-13T03:13:58.133Z,99182.34
2023-01-13T03:19:30.402Z,99182.87
2023-01-13T03:24:39.658Z,99177.98
2023-01-13T03:29:49.013Z,99172.54
2023-01-13T03:34:57.187Z,99170.77
2023-01-13T03:40:13.562Z,99167.77
2023-01-13T03:45:19.634Z,99162.54
2023-01-13T03:50:28.583Z,99161.63
2023-01-13T03:55:36.566Z,99162.11
2023-01-13T04:00:46.472Z,99152.88
2023-01-13T04:05:56.832Z,99155.81
2023-01-13T04:11:25.771Z,99152.46
2023-01-13T04:16:29.109Z,99153.30
2023-01-13T04:21:33.424Z,99148.26
2023-01-13T04:26:36.420Z,99144.55
2023-01-13T04:31:39.432Z,99143.13
2023-01-13T04:36:42.437Z,99137.70
2023-01-13T04:42:02.616Z,99141.30
2023-01-13T04:47:05.967Z,99143.04
2023-01-13T04:52:09.073Z,99146.30
2023-01-13T04:57:12.077Z,99145.23
2023-01-13T05:02:20.052Z,99141.37
2023-01-13T05:07:23.409Z,99142.73
2023-01-13T05:12:45.676Z,99135.58
2023-01-13T05:17:49.259Z,99135.72
2023-01-13T05:23:11.246Z,99139.02
2023-01-13T05:28:14.775Z,99139.69
2023-01-13T05:33:20.749Z,99139.19
2023-01-13T05:38:23.649Z,99150.65
2023-01-13T05:43:28.136Z,99142.30
2023-01-13T05:48:34.060Z,99146.81
2023-01-13T05:53:37.477Z,99152.70
2023-01-13T05:58:40.583Z,99150.09
2023-01-13T06:03:43.482Z,99151.33
2023-01-13T06:08:46.605Z,99149.23
2023-01-13T06:13:49.523Z,99155.15
2023-01-13T06:18:53.071Z,99157.23
2023-01-13T06:23:56.614Z,99159.13
2023-01-13T06:28:59.535Z,99158.77
2023-01-13T06:34:08.263Z,99157.55
2023-01-13T06:39:14.227Z,99160.14
2023-01-13T06:44:18.489Z,99158.91
2023-01-13T06:49:21.821Z,99162.17
2023-01-13T06:54:27.591Z,99164.21
2023-01-13T06:59:30.898Z,99169.59
2023-01-13T07:04:33.995Z,99171.83
2023-01-13T07:09:37.004Z,99179.80
2023-01-13T07:14:58.961Z,99177.68
2023-01-13T07:20:02.063Z,99183.21
2023-01-13T07:25:05.755Z,99187.71
2023-01-13T07:30:09.592Z,99190.45
2023-01-13T07:35:12.620Z,99196.73
2023-01-13T07:40:16.138Z,99195.80
2023-01-13T07:45:19.268Z,99197.83
2023-01-13T07:50:23.866Z,99203.35
2023-01-13T07:55:27.115Z,99202.61
2023-01-13T08:00:30.415Z,99203.95
2023-01-13T08:05:35.899Z,99208.06
2023-01-13T08:10:38.901Z,99210.61
2023-01-13T08:15:41.799Z,99217.84
2023-01-13T08:20:44.801Z,99217.75
2023-01-13T08:25:48.301Z,99221.34
2023-01-13T08:30:53.220Z,99226.48
2023-01-13T08:35:56.590Z,99230.39
2023-01-13T08:40:59.792Z,99236.76
2023-01-13T08:46:05.052Z,99236.31
2023-01-13T08:51:10.497Z,99232.22
2023-01-13T08:56:14.754Z,99241.37
2023-01-13T09:01:22.902Z,99246.20
2023-01-13T09:06:26.395Z,99253.34
2023-01-13T09:11:56.542Z,99255.93
2023-01-13T09:17:00.364Z,99252.08
2023-01-13T09:22:04.296Z,99250.84
2023-01-13T09:27:07.611Z,99245.39
2023-01-13T09:32:14.566Z,99245.88
2023-01-13T09:37:17.618Z,99248.04
2023-01-13T09:42:47.252Z,99241.51
2023-01-13T09:48:17.840Z,99241.58
2023-01-13T09:53:34.215Z,99243.18
2023-01-13T09:58:37.427Z,99240.23
2023-01-13T10:03:40.379Z,99237.46
2023-01-13T10:08:45.815Z,99231.09
2023-01-13T10:13:58.233Z,99221.08
2023-01-13T10:19:12.720Z,99212.98
2023-01-13T10:24:25.324Z,99205.42
2023-01-13T10:29:30.594Z,99205.84
2023-01-13T10:34:51.018Z,99203.29
2023-01-13T10:40:00.879Z,99208.77
2023-01-13T10:45:04.476Z,99211.71
2023-01-13T10:50:13.439Z,99216.59
2023-01-13T10:55:34.586Z,99211.63
2023-01-13T11:00:37.889Z,99216.73
2023-01-13T11:05:47.959Z,99219.31
2023-01-13T11:10:54.655Z,99215.90
2023-01-13T11:16:00.471Z,99206.57
2023-01-13T11:21:12.821Z,99207.45
2023-01-13T11:26:27.768Z,99208.95
2023-01-13T11:31:33.645Z,99213.64
2023-01-13T11:36:46.757Z,99211.16
2023-01-13T11:42:21.601Z,99208.23
2023-01-13T11:47:26.876Z,99208.36
2023-01-13T11:52:39.149Z,99212.59
2023-01-13T11:57:56.226Z,99214.05
2023-01-13T12:03:23.167Z,99217.13
2023-01-13T12:08:45.974Z,99220.39
2023-01-13T12:14:04.961Z,99215.58
2023-01-13T12:19:30.481Z,99214.23
2023-01-13T12:25:00.373Z,99213.34
2023-01-13T12:30:29.538Z,99211.09
2023-01-13T12:35:41.968Z,99216.71
2023-01-13T12:41:21.324Z,99220.08
2023-01-13T12:46:24.844Z,99221.23
2023-01-13T12:51:37.784Z,99218.84
2023-01-13T12:56:42.349Z,99211.41
2023-01-13T13:01:51.125Z,99221.36
2023-01-13T13:07:08.195Z,99223.92
2023-01-13T13:13:01.090Z,99224.27
2023-01-13T13:18:22.221Z,99231.41
2023-01-13T13:23:40.476Z,99227.05
2023-01-13T13:29:13.282Z,99234.11
2023-01-13T13:34:38.094Z,99243.89
2023-01-13T13:40:02.643Z,99242.13
2023-01-13T13:45:36.042Z,99246.44
2023-01-13T13:50:47.920Z,99248.14
2023-01-13T13:56:02.213Z,99250.95
2023-01-13T14:01:06.321Z,99256.21
2023-01-13T14:06:23.791Z,99260.73
2023-01-13T14:11:33.384Z,99250.55
2023-01-13T14:16:38.463Z,99251.16
2023-01-13T14:21:41.562Z,99250.55
2023-01-13T14:26:44.570Z,99248.70
2023-01-13T14:31:53.417Z,99251.73
2023-01-13T14:36:56.587Z,99256.83
2023-01-13T14:41:59.713Z,99262.48
2023-01-13T14:47:16.345Z,99267.46
2023-01-13T14:52:21.974Z,99260.25
2023-01-13T14:57:28.184Z,99250.20
2023-01-13T15:02:31.364Z,99257.40
2023-01-13T15:07:34.807Z,99252.72
2023-01-13T15:12:40.881Z,99263.38
2023-01-13T15:17:46.153Z,99263.41
2023-01-13T15:22:50.027Z,99262.04
2023-01-13T15:27:53.694Z,99269.69
2023-01-13T15:32:58.339Z,99269.84
2023-01-13T15:38:01.342Z,99268.57
2023-01-13T15:43:23.291Z,99274.48
2023-01-13T15:48:29.678Z,99275.16
2023-01-13T15:53:33.809Z,99283.68
2023-01-13T15:58:36.821Z,99279.33
2023-01-13T16:03:40.031Z,99283.88
2023-01-13T16:08:43.149Z,99290.41
2023-01-13T16:13:46.151Z,99285.42
2023-01-13T16:18:50.326Z,99275.42
2023-01-13T16:23:53.312Z,99268.75
2023-01-13T16:28:58.012Z,99268.31
2023-01-13T16:34:03.131Z,99272.91
2023-01-13T16:39:20.663Z,99271.39
2023-01-13T16:44:23.703Z,99279.94
2023-01-13T16:49:26.713Z,99282.77
2023-01-13T16:54:29.827Z,99291.33
2023-01-13T16:59:33.038Z,99290.48
2023-01-13T17:04:36.154Z,99291.77
2023-01-13T17:09:39.210Z,99296.34
2023-01-13T17:14:43.714Z,99294.67
2023-01-13T17:19:46.713Z,99296.07
2023-01-13T17:24:49.722Z,99296.95
2023-01-13T17:29:52.824Z,99297.16
2023-01-13T17:34:55.837Z,99302.09
2023-01-13T17:39:59.066Z,99305.95
2023-01-13T17:45:02.162Z,99300.58
2023-01-13T17:50:06.216Z,99301.48
2023-01-13T17:55:09.565Z,99301.70
2023-01-13T18:00:13.127Z,99304.21
2023-01-13T18:05:16.230Z,99311.13
2023-01-13T18:10:19.434Z,99314.85
2023-01-13T18:15:22.947Z,99321.81
2023-01-13T18:20:44.693Z,99321.05
2023-01-13T18:26:20.677Z,99325.05
2023-01-13T18:31:23.679Z,99323.50
2023-01-13T18:36:26.900Z,99334.66
2023-01-13T18:41:49.561Z,99335.39
2023-01-13T18:46:52.664Z,99336.62
2023-01-13T18:51:56.290Z,99339.87
2023-01-13T18:57:01.354Z,99352.98
2023-01-13T19:02:09.571Z,99351.16
2023-01-13T19:07:16.842Z,99358.45
2023-01-13T19:12:26.472Z,99365.71
2023-01-13T19:17:34.732Z,99372.31
2023-01-13T19:22:37.679Z,99372.13
2023-01-13T19:27:40.575Z,99379.17
2023-01-13T19:32:43.690Z,99385.71
2023-01-13T19:37:47.010Z,99382.88
2023-01-13T19:43:08.867Z,99384.77
2023-01-13T19:48:16.170Z,99391.23
2023-01-13T19:53:19.127Z,99395.51
2023-01-13T19:58:26.265Z,99399.20
2023-01-13T20:03:36.030Z,99397.87
2023-01-13T20:08:39.065Z,99402.81
2023-01-13T20:13:42.358Z,99408.23
2023-01-13T20:18:50.411Z,99416.94
2023-01-13T20:23:53.696Z,99420.39
2023-01-13T20:28:56.595Z,99422.95
2023-01-13T20:33:59.601Z,99424.62
2023-01-13T20:39:04.764Z,99430.30
2023-01-13T20:44:11.466Z,99440.98
2023-01-13T20:49:15.665Z,99445.42
2023-01-13T20:54:19.373Z,99450.52
2023-01-13T20:59:23.139Z,99455.77
2023-01-13T21:04:26.553Z,99455.80
2023-01-13T21:09:29.657Z,99457.23
2023-01-13T21:15:01.749Z,99457.47
2023-01-13T21:20:07.313Z,99459.42
2023-01-13T21:25:12.512Z,99452.54
2023-01-13T21:30:17.125Z,99460.90
2023-01-13T21:35:20.151Z,99467.86
2023-01-13T21:40:23.441Z,99469.63
2023-01-13T21:45:45.016Z,99463.04
2023-01-13T21:50:48.189Z,99455.41
2023-01-13T21:55:52.579Z,99455.40
2023-01-13T22:00:55.773Z,99454.70
2023-01-13T22:05:58.966Z,99454.55
2023-01-13T22:11:03.061Z,99458.04
2023-01-13T22:16:06.719Z,99463.62
2023-01-13T22:21:09.777Z,99466.61
2023-01-13T22:26:12.922Z,99465.13
2023-01-13T22:31:18.603Z,99469.49
2023-01-13T22:36:24.064Z,99474.21
2023-01-13T22:41:27.058Z,99474.77
2023-01-13T22:46:30.163Z,99484.16
2023-01-13T22:51:33.392Z,99489.54
2023-01-13T22:56:36.961Z,99491.64
2023-01-13T23:01:42.182Z,99494.73
2023-01-13T23:06:45.169Z,99492.00
2023-01-13T23:11:48.167Z,99488.89
2023-01-13T23:16:51.828Z,99493.59
2023-01-13T23:21:54.801Z,99495.86
2023-01-13T23:26:57.908Z,99494.27
2023-01-13T23:32:00.920Z,99489.41
2023-01-13T23:37:04.337Z,99488.13
2023-01-13T23:42:07.333Z,99488.77
2023-01-13T23:47:11.878Z,99487.49
2023-01-13T23:52:17.873Z,99481.55
2023-01-13T23:57:20.972Z,99487.23
